createdAt,value
2019-05-07T00:01:17.319Z,17.00
2019-05-07T00:03:46.504Z,17.13
2019-05-07T00:06:15.619Z,16.07
2019-05-07T00:08:45.150Z,17.73
2019-05-07T00:11:14.357Z,17.73
2019-05-07T00:13:44.452Z,16.97
2019-05-07T00:16:13.724Z,17.97
2019-05-07T00:18:43.103Z,17.53
2019-05-07T00:21:12.671Z,19.47
2019-05-07T00:23:43.286Z,17.27
2019-05-07T00:26:13.335Z,17.17
2019-05-07T00:28:43.410Z,16.53
2019-05-07T00:31:12.573Z,17.60
2019-05-07T00:33:43.296Z,16.33
2019-05-07T00:36:33.777Z,17.07
2019-05-07T00:39:14.890Z,17.50
2019-05-07T00:41:52.106Z,18.37
2019-05-07T00:44:22.109Z,18.67
2019-05-07T00:46:52.557Z,18.53
2019-05-07T00:49:23.446Z,18.93
2019-05-07T00:51:52.557Z,18.80
2019-05-07T00:54:23.030Z,18.43
2019-05-07T00:56:52.284Z,18.63
2019-05-07T00:59:22.532Z,18.07
2019-05-07T01:01:52.805Z,17.80
2019-05-07T01:04:22.889Z,17.43
2019-05-07T01:06:53.233Z,18.33
2019-05-07T01:09:22.998Z,18.30
2019-05-07T01:11:52.522Z,18.00
2019-05-07T01:14:22.858Z,18.17
2019-05-07T01:16:52.896Z,17.43
2019-05-07T01:19:22.144Z,17.13
2019-05-07T01:21:52.524Z,16.87
2019-05-07T01:24:23.318Z,18.30
2019-05-07T01:26:53.061Z,16.70
2019-05-07T01:29:22.675Z,16.97
2019-05-07T01:32:00.295Z,16.90
2019-05-07T01:34:54.311Z,17.53
2019-05-07T01:37:23.280Z,16.67
2019-05-07T01:39:53.047Z,18.20
2019-05-07T01:42:22.319Z,17.60
2019-05-07T01:44:52.848Z,16.77
2019-05-07T01:47:23.732Z,16.13
2019-05-07T01:49:55.198Z,17.57
2019-05-07T01:52:23.749Z,16.63
2019-05-07T01:54:52.856Z,16.57
2019-05-07T01:57:23.175Z,16.27
2019-05-07T01:59:52.873Z,17.93
2019-05-07T02:02:32.114Z,17.80
2019-05-07T02:05:20.122Z,17.27
2019-05-07T02:07:54.231Z,15.60
2019-05-07T02:10:31.940Z,16.23
2019-05-07T02:13:02.312Z,15.80
2019-05-07T02:15:32.277Z,15.57
2019-05-07T02:18:01.965Z,15.97
2019-05-07T02:20:32.124Z,16.97
2019-05-07T02:23:02.786Z,15.97
2019-05-07T02:25:32.713Z,16.47
2019-05-07T02:28:02.312Z,15.20
2019-05-07T02:30:34.540Z,16.53
2019-05-07T02:33:03.802Z,16.90
2019-05-07T02:35:35.879Z,17.27
2019-05-07T02:38:17.763Z,16.30
2019-05-07T02:40:54.038Z,16.53
2019-05-07T02:43:23.046Z,17.43
2019-05-07T02:46:17.494Z,16.90
2019-05-07T02:48:34.586Z,16.90
2019-05-07T02:51:09.273Z,17.03
2019-05-07T02:54:03.344Z,16.90
2019-05-07T02:56:33.340Z,16.17
2019-05-07T02:59:04.048Z,16.83
2019-05-07T03:01:33.618Z,17.70
2019-05-07T03:04:03.748Z,16.07
2019-05-07T03:06:33.981Z,16.67
2019-05-07T03:09:03.545Z,16.73
2019-05-07T03:11:34.045Z,17.03
2019-05-07T03:14:03.467Z,16.57
2019-05-07T03:16:43.755Z,16.83
2019-05-07T03:19:04.197Z,16.60
2019-05-07T03:21:53.703Z,16.63
2019-05-07T03:24:44.239Z,17.37
2019-05-07T03:27:14.344Z,18.13
2019-05-07T03:29:47.262Z,17.40
2019-05-07T03:32:38.115Z,16.17
2019-05-07T03:35:29.190Z,17.33
2019-05-07T03:37:58.488Z,17.33
2019-05-07T03:40:28.486Z,16.60
2019-05-07T03:43:01.600Z,16.97
2019-05-07T03:45:46.107Z,17.30
2019-05-07T03:48:17.240Z,18.07
2019-05-07T03:50:46.306Z,17.00
2019-05-07T03:53:15.422Z,17.83
2019-05-07T03:55:44.986Z,18.10
2019-05-07T03:58:14.845Z,17.90
2019-05-07T04:00:44.731Z,17.87
2019-05-07T04:03:18.761Z,18.43
2019-05-07T04:05:44.663Z,18.10
2019-05-07T04:08:13.792Z,18.40
2019-05-07T04:10:44.310Z,19.50
2019-05-07T04:13:13.883Z,18.03
2019-05-07T04:15:44.010Z,18.63
2019-05-07T04:18:13.613Z,17.73
2019-05-07T04:20:43.455Z,18.33
2019-05-07T04:23:13.862Z,18.83
2019-05-07T04:25:53.034Z,19.43
2019-05-07T04:28:34.868Z,17.80
2019-05-07T04:31:04.211Z,19.83
2019-05-07T04:33:43.667Z,19.33
2019-05-07T04:36:19.087Z,18.43
2019-05-07T04:38:48.089Z,19.23
2019-05-07T04:41:17.122Z,18.50
2019-05-07T04:43:46.329Z,18.73
2019-05-07T04:46:15.346Z,19.23
2019-05-07T04:48:44.492Z,18.07
2019-05-07T04:51:15.846Z,19.13
2019-05-07T04:53:44.933Z,17.80
2019-05-07T04:56:14.188Z,18.60
2019-05-07T04:58:43.622Z,18.27
2019-05-07T05:01:14.579Z,19.23
2019-05-07T05:03:43.908Z,18.37
2019-05-07T05:06:13.818Z,19.40
2019-05-07T05:08:43.734Z,17.83
2019-05-07T05:11:13.095Z,19.73
2019-05-07T05:13:44.474Z,19.27
2019-05-07T05:16:26.605Z,19.07
2019-05-07T05:18:55.795Z,18.60
2019-05-07T05:21:43.863Z,18.63
2019-05-07T05:24:18.302Z,18.33
2019-05-07T05:26:47.355Z,18.53
2019-05-07T05:29:16.721Z,18.27
2019-05-07T05:31:45.819Z,18.30
2019-05-07T05:34:15.034Z,18.33
2019-05-07T05:36:46.957Z,18.23
2019-05-07T05:39:16.049Z,17.33
2019-05-07T05:41:46.811Z,18.07
2019-05-07T05:44:22.798Z,17.53
2019-05-07T05:46:52.582Z,18.67
2019-05-07T05:49:22.945Z,18.00
2019-05-07T05:51:58.968Z,17.97
2019-05-07T05:54:35.945Z,16.17
2019-05-07T05:57:24.251Z,16.37
2019-05-07T06:00:15.341Z,17.03
2019-05-07T06:02:56.439Z,16.57
2019-05-07T06:05:47.478Z,17.10
2019-05-07T06:08:34.105Z,16.30
2019-05-07T06:11:21.871Z,15.70
2019-05-07T06:14:13.914Z,16.53
2019-05-07T06:16:52.634Z,16.60
2019-05-07T06:19:32.695Z,17.13
2019-05-07T06:22:17.225Z,16.80
2019-05-07T06:24:52.131Z,16.77
2019-05-07T06:27:22.916Z,16.63
2019-05-07T06:29:52.441Z,17.67
2019-05-07T06:32:22.960Z,15.50
2019-05-07T06:34:52.417Z,16.67
2019-05-07T06:37:22.819Z,15.37
2019-05-07T06:40:03.093Z,16.63
2019-05-07T06:42:57.281Z,16.03
2019-05-07T06:45:29.080Z,13.80
2019-05-07T06:47:58.164Z,14.87
2019-05-07T06:50:27.344Z,12.43
2019-05-07T06:52:56.403Z,13.70
2019-05-07T06:55:25.543Z,12.13
2019-05-07T06:57:54.669Z,14.00
2019-05-07T07:00:49.304Z,12.47
2019-05-07T07:03:27.802Z,12.23
2019-05-07T07:06:15.817Z,12.43
2019-05-07T07:08:52.709Z,11.40
2019-05-07T07:11:31.761Z,11.70
2019-05-07T07:14:02.494Z,11.67
2019-05-07T07:16:32.604Z,12.03
2019-05-07T07:19:03.340Z,10.27
2019-05-07T07:21:32.830Z,10.90
2019-05-07T07:24:03.016Z,10.17
2019-05-07T07:26:33.983Z,10.80
2019-05-07T07:29:03.097Z,11.50
2019-05-07T07:31:45.913Z,12.53
2019-05-07T07:34:14.992Z,11.63
2019-05-07T07:37:08.407Z,11.77
2019-05-07T07:39:34.061Z,11.43
2019-05-07T07:42:04.421Z,11.30
2019-05-07T07:44:33.619Z,12.00
2019-05-07T07:47:02.859Z,11.83
2019-05-07T07:49:32.949Z,12.03
2019-05-07T07:52:03.165Z,11.83
2019-05-07T07:54:32.507Z,12.00
2019-05-07T07:57:18.457Z,11.53
2019-05-07T08:00:09.220Z,11.50
2019-05-07T08:02:43.998Z,11.30
2019-05-07T08:05:13.128Z,10.73
2019-05-07T08:07:42.696Z,10.97
2019-05-07T08:10:12.891Z,11.20
2019-05-07T08:12:42.548Z,10.63
2019-05-07T08:15:18.115Z,10.27
2019-05-07T08:17:42.492Z,10.43
2019-05-07T08:20:12.809Z,9.30
2019-05-07T08:22:42.446Z,8.17
2019-05-07T08:25:12.508Z,8.63
2019-05-07T08:27:42.155Z,8.83
2019-05-07T08:30:13.040Z,9.53
2019-05-07T08:32:56.605Z,9.20
2019-05-07T08:35:36.261Z,9.23
2019-05-07T08:38:05.399Z,8.60
2019-05-07T08:40:34.439Z,8.67
2019-05-07T08:43:03.555Z,9.47
2019-05-07T08:46:11.873Z,11.97
2019-05-07T08:48:50.483Z,11.90
2019-05-07T08:51:22.247Z,12.00
2019-05-07T08:54:05.490Z,11.20
2019-05-07T08:56:35.441Z,12.50
2019-05-07T08:59:04.671Z,10.60
2019-05-07T09:01:34.029Z,11.23
2019-05-07T09:04:03.127Z,12.10
2019-05-07T09:06:35.058Z,13.03
2019-05-07T09:09:09.875Z,13.17
2019-05-07T09:11:38.958Z,12.77
2019-05-07T09:14:08.026Z,12.27
2019-05-07T09:16:37.119Z,13.90
2019-05-07T09:19:06.651Z,13.50
2019-05-07T09:21:36.838Z,12.17
2019-05-07T09:24:06.404Z,12.40
2019-05-07T09:26:44.355Z,12.03
2019-05-07T09:29:38.536Z,12.97
2019-05-07T09:32:28.420Z,12.50
2019-05-07T09:34:57.824Z,12.90
2019-05-07T09:37:28.443Z,13.17
2019-05-07T09:39:57.599Z,13.90
2019-05-07T09:42:26.670Z,13.27
2019-05-07T09:44:55.765Z,12.30
2019-05-07T09:47:24.796Z,13.70
2019-05-07T09:50:03.886Z,12.97
2019-05-07T09:52:24.751Z,12.70
2019-05-07T09:54:53.858Z,13.07
2019-05-07T09:57:30.478Z,13.00
2019-05-07T09:59:54.171Z,13.27
2019-05-07T10:02:23.223Z,14.40
2019-05-07T10:04:52.858Z,12.77
2019-05-07T10:07:22.475Z,13.60
2019-05-07T10:09:52.322Z,12.77
2019-05-07T10:12:28.400Z,12.80
2019-05-07T10:14:57.461Z,12.83
2019-05-07T10:17:33.914Z,13.50
2019-05-07T10:20:07.259Z,13.33
2019-05-07T10:22:34.044Z,12.23
2019-05-07T10:25:03.188Z,12.30
2019-05-07T10:27:32.630Z,13.93
2019-05-07T10:30:02.352Z,13.50
2019-05-07T10:32:32.305Z,13.00
2019-05-07T10:35:02.266Z,13.37
2019-05-07T10:37:31.975Z,12.83
2019-05-07T10:40:03.045Z,13.20
2019-05-07T10:42:32.508Z,13.57
2019-05-07T10:45:16.137Z,14.53
2019-05-07T10:47:53.220Z,14.53
2019-05-07T10:50:38.027Z,14.93
2019-05-07T10:52:57.802Z,14.50
2019-05-07T10:55:26.929Z,14.83
2019-05-07T10:57:56.566Z,13.13
2019-05-07T11:00:26.517Z,13.00
2019-05-07T11:02:55.637Z,14.13
2019-05-07T11:05:24.855Z,14.20
2019-05-07T11:07:54.044Z,14.50
2019-05-07T11:10:23.050Z,14.27
2019-05-07T11:12:52.186Z,15.00
2019-05-07T11:15:22.020Z,13.47
2019-05-07T11:18:13.289Z,11.80
2019-05-07T11:20:49.277Z,12.10
2019-05-07T11:23:13.260Z,12.20
2019-05-07T11:25:42.356Z,12.40
2019-05-07T11:28:12.338Z,11.53
2019-05-07T11:30:42.565Z,11.70
2019-05-07T11:33:12.856Z,12.00
2019-05-07T11:35:42.451Z,11.53
2019-05-07T11:38:20.508Z,11.93
2019-05-07T11:40:42.948Z,11.13
2019-05-07T11:43:29.798Z,12.40
2019-05-07T11:46:22.221Z,11.37
2019-05-07T11:49:00.307Z,12.17
2019-05-07T11:51:37.723Z,11.77
2019-05-07T11:54:12.712Z,11.70
2019-05-07T11:56:42.461Z,10.90
2019-05-07T11:59:13.352Z,10.73
2019-05-07T12:01:48.024Z,11.47
2019-05-07T12:04:22.176Z,11.53
2019-05-07T12:06:52.061Z,11.70
2019-05-07T12:09:21.840Z,12.73
2019-05-07T12:11:52.043Z,12.53
2019-05-07T12:14:30.563Z,15.10
2019-05-07T12:16:52.983Z,13.40
2019-05-07T12:19:24.332Z,13.07
2019-05-07T12:21:53.634Z,12.07
2019-05-07T12:24:22.729Z,11.07
2019-05-07T12:26:52.334Z,12.17
2019-05-07T12:29:22.059Z,13.30
2019-05-07T12:32:25.503Z,11.97
2019-05-07T12:34:58.027Z,12.70
2019-05-07T12:37:27.173Z,11.90
2019-05-07T12:39:56.258Z,12.00
2019-05-07T12:46:05.325Z,11.20
2019-05-07T12:48:34.417Z,11.10
2019-05-07T12:51:03.511Z,11.93
2019-05-07T12:53:43.607Z,11.63
2019-05-07T12:56:12.678Z,12.37
2019-05-07T12:58:41.784Z,13.10
2019-05-07T13:01:32.923Z,13.40
2019-05-07T13:04:08.426Z,13.97
2019-05-07T13:06:43.244Z,14.27
2019-05-07T13:09:12.664Z,14.83
2019-05-07T13:11:42.505Z,14.33
2019-05-07T13:14:12.584Z,14.13
2019-05-07T13:16:41.761Z,14.00
2019-05-07T13:19:13.206Z,12.73
2019-05-07T13:21:49.091Z,11.43
2019-05-07T13:24:14.982Z,10.43
2019-05-07T13:26:44.303Z,12.10
2019-05-07T13:29:13.367Z,12.33
2019-05-07T13:31:42.458Z,12.80
2019-05-07T13:34:12.231Z,11.30
2019-05-07T13:36:45.121Z,13.30
2019-05-07T13:42:31.990Z,10.50
2019-05-07T13:45:09.447Z,11.93
2019-05-07T13:47:40.802Z,10.83
2019-05-07T13:50:11.933Z,11.70
2019-05-07T13:52:43.135Z,12.83
2019-05-07T14:00:34.284Z,12.87
2019-05-07T14:03:03.439Z,11.73
2019-05-07T14:05:32.544Z,12.03
2019-05-07T14:08:04.450Z,10.63
2019-05-07T14:10:33.858Z,9.17
2019-05-07T14:13:12.529Z,8.80
2019-05-07T14:15:35.002Z,8.87
2019-05-07T14:18:04.175Z,9.20
2019-05-07T14:20:33.224Z,8.97
2019-05-07T14:23:02.248Z,8.77
2019-05-07T14:25:32.563Z,9.33
2019-05-07T14:28:02.269Z,8.93
2019-05-07T14:30:32.785Z,7.93
2019-05-07T14:33:14.394Z,9.07
2019-05-07T14:35:55.314Z,8.87
2019-05-07T14:38:32.089Z,8.97
2019-05-07T14:41:02.661Z,9.63
2019-05-07T14:43:43.676Z,10.13
2019-05-07T14:46:12.769Z,9.90
2019-05-07T14:48:43.780Z,10.00
2019-05-07T14:51:12.777Z,10.63
2019-05-07T14:53:42.843Z,11.00
2019-05-07T14:56:14.274Z,11.27
2019-05-07T14:58:43.080Z,10.60
2019-05-07T15:01:12.179Z,11.27
2019-05-07T15:03:42.335Z,10.40
2019-05-07T15:06:12.606Z,10.87
2019-05-07T15:08:42.872Z,10.10
2019-05-07T15:11:10.976Z,9.63
2019-05-07T15:13:40.065Z,10.50
2019-05-07T15:16:09.163Z,10.50
2019-05-07T15:18:49.160Z,10.43
2019-05-07T15:21:18.238Z,10.53
2019-05-07T15:23:47.719Z,10.43
2019-05-07T15:26:16.804Z,10.13
2019-05-07T15:28:48.533Z,9.90
2019-05-07T15:31:23.351Z,9.40
2019-05-07T15:33:52.404Z,9.63
2019-05-07T15:36:21.495Z,9.93
2019-05-07T15:38:52.160Z,9.07
2019-05-07T15:41:22.822Z,9.63
2019-05-07T15:43:52.213Z,9.73
2019-05-07T15:46:22.712Z,10.20
2019-05-07T15:48:53.927Z,10.00
2019-05-07T15:51:23.005Z,11.27
2019-05-07T15:53:54.562Z,13.60
2019-05-07T15:56:23.729Z,10.43
2019-05-07T15:58:52.852Z,9.77
2019-05-07T16:01:22.279Z,9.57
2019-05-07T16:03:54.712Z,9.77
2019-05-07T16:06:22.384Z,9.60
2019-05-07T16:08:57.946Z,10.83
2019-05-07T16:11:26.986Z,9.97
2019-05-07T16:14:14.673Z,10.20
2019-05-07T16:16:46.595Z,9.37
2019-05-07T16:19:29.042Z,9.97
2019-05-07T16:22:04.320Z,9.40
2019-05-07T16:24:33.465Z,10.03
2019-05-07T16:27:05.141Z,10.23
2019-05-07T16:29:35.666Z,10.30
2019-05-07T16:32:04.093Z,9.80
2019-05-07T16:34:33.153Z,8.97
2019-05-07T16:37:06.807Z,9.37
2019-05-07T16:39:32.974Z,10.00
2019-05-07T16:42:02.008Z,10.33
2019-05-07T16:44:33.115Z,9.80
2019-05-07T16:47:02.787Z,10.30
2019-05-07T16:49:32.662Z,9.43
2019-05-07T16:52:02.810Z,9.17
2019-05-07T16:54:35.124Z,8.97
2019-05-07T16:57:22.176Z,9.00
2019-05-07T16:59:52.209Z,9.33
2019-05-07T17:02:25.780Z,8.60
2019-05-07T17:05:12.734Z,9.07
2019-05-07T17:07:48.489Z,8.90
2019-05-07T17:10:18.467Z,9.83
2019-05-07T17:12:47.787Z,9.10
2019-05-07T17:15:17.093Z,8.90
2019-05-07T17:17:46.277Z,7.97
2019-05-07T17:20:15.450Z,8.00
2019-05-07T17:22:44.479Z,8.30
2019-05-07T17:25:33.276Z,8.63
2019-05-07T17:28:02.871Z,8.40
2019-05-07T17:30:32.115Z,7.77
2019-05-07T17:33:01.929Z,8.60
2019-05-07T17:35:34.067Z,8.50
2019-05-07T17:38:08.977Z,8.57
2019-05-07T17:40:32.462Z,8.63
2019-05-07T17:43:03.194Z,8.50
2019-05-07T17:45:33.048Z,8.40
2019-05-07T17:48:03.153Z,9.40
2019-05-07T17:50:38.596Z,25.50
2019-05-07T17:53:07.668Z,10.20
2019-05-07T17:55:36.678Z,10.27
2019-05-07T17:58:05.730Z,8.80
2019-05-07T18:00:34.724Z,7.70
2019-05-07T18:03:15.441Z,7.67
2019-05-07T18:05:44.498Z,8.17
2019-05-07T18:08:13.512Z,8.50
2019-05-07T18:10:42.696Z,7.40
2019-05-07T18:13:12.029Z,7.43
2019-05-07T18:15:42.768Z,8.43
2019-05-07T18:18:12.757Z,7.83
2019-05-07T18:20:42.303Z,7.83
2019-05-07T18:23:16.718Z,7.90
2019-05-07T18:25:42.875Z,7.17
2019-05-07T18:28:12.516Z,7.37
2019-05-07T18:30:41.613Z,7.77
2019-05-07T18:33:28.382Z,7.40
2019-05-07T18:35:57.520Z,7.67
2019-05-07T18:38:26.626Z,6.90
2019-05-07T18:40:55.665Z,7.00
2019-05-07T18:43:24.762Z,6.63
2019-05-07T18:45:53.801Z,7.50
2019-05-07T18:48:22.916Z,6.60
2019-05-07T18:50:52.280Z,5.77
2019-05-07T18:53:22.685Z,6.57
2019-05-07T18:55:51.877Z,6.60
2019-05-07T18:58:22.448Z,6.80
2019-05-07T19:00:55.065Z,6.70
2019-05-07T19:03:25.443Z,6.67
2019-05-07T19:05:54.770Z,6.87
2019-05-07T19:08:23.912Z,7.30
2019-05-07T19:10:54.797Z,7.90
2019-05-07T19:13:23.848Z,7.00
2019-05-07T19:15:56.373Z,7.17
2019-05-07T19:18:23.915Z,5.97
2019-05-07T19:20:54.121Z,7.50
2019-05-07T19:23:23.308Z,6.67
2019-05-07T19:25:55.148Z,7.10
2019-05-07T19:28:24.232Z,6.37
2019-05-07T19:30:53.357Z,7.03
2019-05-07T19:33:26.808Z,6.63
2019-05-07T19:35:53.603Z,6.40
2019-05-07T19:38:22.697Z,6.70
2019-05-07T19:40:52.812Z,6.93
2019-05-07T19:43:22.108Z,6.80
2019-05-07T19:45:52.366Z,6.60
2019-05-07T19:48:23.137Z,6.90
2019-05-07T19:50:52.850Z,6.90
2019-05-07T19:53:23.521Z,6.93
2019-05-07T19:56:09.151Z,6.63
2019-05-07T19:58:38.245Z,6.97
2019-05-07T20:01:08.671Z,6.30
2019-05-07T20:03:37.783Z,7.43
2019-05-07T20:06:06.847Z,6.70
2019-05-07T20:08:35.996Z,6.50
2019-05-07T20:11:17.075Z,7.67
2019-05-07T20:13:46.142Z,7.37
2019-05-07T20:16:18.856Z,6.63
2019-05-07T20:18:48.131Z,6.10
2019-05-07T20:21:18.038Z,6.73
2019-05-07T20:23:47.160Z,6.20
2019-05-07T20:26:16.336Z,7.17
2019-05-07T20:28:45.513Z,6.47
2019-05-07T20:31:14.757Z,6.90
2019-05-07T20:33:43.939Z,7.30
2019-05-07T20:36:13.645Z,7.07
2019-05-07T20:38:42.846Z,7.40
2019-05-07T20:41:12.909Z,8.37
2019-05-07T20:43:42.976Z,6.90
2019-05-07T20:46:12.178Z,6.60
2019-05-07T20:48:42.335Z,7.60
2019-05-07T20:51:12.408Z,7.10
2019-05-07T20:53:59.430Z,6.93
2019-05-07T20:56:32.261Z,7.37
2019-05-07T20:59:03.000Z,7.80
2019-05-07T21:01:32.953Z,7.87
2019-05-07T21:04:02.300Z,7.67
2019-05-07T21:06:32.305Z,8.03
2019-05-07T21:09:01.521Z,7.57
2019-05-07T21:11:32.373Z,8.93
2019-05-07T21:14:03.250Z,7.70
2019-05-07T21:16:32.963Z,9.30
2019-05-07T21:19:02.348Z,8.87
2019-05-07T21:21:32.694Z,9.20
2019-05-07T21:24:02.221Z,9.60
2019-05-07T21:26:32.787Z,8.43
2019-05-07T21:29:02.965Z,6.67
2019-05-07T21:31:32.474Z,7.10
2019-05-07T21:34:03.277Z,7.37
2019-05-07T21:36:32.615Z,7.87
2019-05-07T21:39:02.371Z,7.67
2019-05-07T21:41:33.450Z,8.80
2019-05-07T21:44:02.465Z,10.10
2019-05-07T21:46:32.941Z,9.70
2019-05-07T21:49:02.731Z,8.60
2019-05-07T21:51:32.052Z,8.07
2019-05-07T21:54:23.675Z,8.20
2019-05-07T21:57:12.648Z,9.13
2019-05-07T21:59:43.186Z,9.77
2019-05-07T22:02:22.779Z,9.67
2019-05-07T22:04:52.916Z,8.40
2019-05-07T22:07:22.817Z,9.17
2019-05-07T22:09:52.352Z,8.53
2019-05-07T22:12:22.909Z,8.23
2019-05-07T22:14:52.000Z,9.50
2019-05-07T22:17:21.919Z,8.87
2019-05-07T22:19:52.497Z,8.83
2019-05-07T22:22:24.021Z,8.00
2019-05-07T22:24:53.131Z,8.43
2019-05-07T22:27:22.273Z,7.17
2019-05-07T22:29:52.737Z,6.77
2019-05-07T22:32:38.319Z,7.50
2019-05-07T22:35:19.860Z,7.03
2019-05-07T22:37:48.960Z,6.23
2019-05-07T22:40:18.092Z,6.40
2019-05-07T22:42:47.122Z,6.60
2019-05-07T22:45:16.138Z,6.90
2019-05-07T22:47:45.124Z,6.47
2019-05-07T22:50:14.326Z,7.23
2019-05-07T22:52:43.463Z,6.70
2019-05-07T22:55:15.538Z,6.83
2019-05-07T22:58:03.622Z,7.03
2019-05-07T23:00:36.637Z,6.87
2019-05-07T23:03:05.644Z,7.10
2019-05-07T23:05:34.660Z,7.00
2019-05-07T23:08:03.613Z,7.60
2019-05-07T23:10:33.298Z,7.27
2019-05-07T23:13:02.518Z,6.93
2019-05-07T23:15:32.203Z,6.53
2019-05-07T23:18:04.132Z,7.10
2019-05-07T23:20:32.169Z,7.03
2019-05-07T23:23:01.960Z,7.97
2019-05-07T23:25:32.237Z,6.93
2019-05-07T23:28:04.948Z,7.20
2019-05-07T23:30:33.103Z,6.63
2019-05-07T23:33:02.545Z,6.23
2019-05-07T23:35:32.830Z,6.43
2019-05-07T23:38:02.565Z,6.33
2019-05-07T23:41:01.984Z,6.67
2019-05-07T23:43:30.465Z,5.30
2019-05-07T23:45:59.495Z,5.50
2019-05-07T23:48:28.518Z,5.70
2019-05-07T23:50:57.619Z,4.90
2019-05-07T23:53:26.610Z,5.37
2019-05-07T23:55:55.623Z,4.90
2019-05-07T23:58:24.596Z,5.33
